createdAt,value
2022-12-25T00:00:05.672Z,4.62
2022-12-25T00:01:05.642Z,4.64
2022-12-25T00:02:05.599Z,4.62
2022-12-25T00:03:05.657Z,4.62
2022-12-25T00:04:05.686Z,4.62
2022-12-25T00:05:05.540Z,4.62
2022-12-25T00:06:05.545Z,4.61
2022-12-25T00:07:05.528Z,4.61
2022-12-25T00:08:05.529Z,4.62
2022-12-25T00:09:05.498Z,4.61
2022-12-25T00:10:05.508Z,4.61
2022-12-25T00:11:05.507Z,4.61
2022-12-25T00:12:05.480Z,4.57
2022-12-25T00:13:05.516Z,4.59
2022-12-25T00:14:05.454Z,4.57
2022-12-25T00:15:05.450Z,4.59
2022-12-25T00:16:05.490Z,4.57
2022-12-25T00:17:05.443Z,4.56
2022-12-25T00:18:05.440Z,4.56
2022-12-25T00:19:05.408Z,4.56
2022-12-25T00:20:05.398Z,4.56
2022-12-25T00:21:05.389Z,4.54
2022-12-25T00:22:05.383Z,4.56
2022-12-25T00:23:05.378Z,4.54
2022-12-25T00:24:05.360Z,4.56
2022-12-25T00:25:05.416Z,4.57
2022-12-25T00:26:05.342Z,4.59
2022-12-25T00:27:05.322Z,4.62
2022-12-25T00:28:05.331Z,4.62
2022-12-25T00:29:05.298Z,4.62
2022-12-25T00:30:05.294Z,4.64
2022-12-25T00:31:05.311Z,4.64
2022-12-25T00:32:05.273Z,4.68
2022-12-25T00:33:05.276Z,4.71
2022-12-25T00:34:05.250Z,4.72
2022-12-25T00:35:05.257Z,4.72
2022-12-25T00:36:05.243Z,4.77
2022-12-25T00:37:05.223Z,4.86
2022-12-25T00:38:05.238Z,4.94
2022-12-25T00:39:05.207Z,4.97
2022-12-25T00:40:05.199Z,5.01
2022-12-25T00:41:05.182Z,5.05
2022-12-25T00:42:05.178Z,5.04
2022-12-25T00:43:05.197Z,5.05
2022-12-25T00:44:05.145Z,5.06
2022-12-25T00:45:05.137Z,5.09
2022-12-25T00:46:05.185Z,5.08
2022-12-25T00:47:05.213Z,5.11
2022-12-25T00:48:05.121Z,5.15
2022-12-25T00:49:05.108Z,5.19
2022-12-25T00:50:05.100Z,5.22
2022-12-25T00:51:05.087Z,5.22
2022-12-25T00:52:05.073Z,5.23
2022-12-25T00:53:05.080Z,5.22
2022-12-25T00:54:05.070Z,5.26
2022-12-25T00:55:05.040Z,5.29
2022-12-25T00:56:05.039Z,5.29
2022-12-25T00:57:05.017Z,5.30
2022-12-25T00:58:05.037Z,5.32
2022-12-25T00:59:05.001Z,5.32
2022-12-25T01:00:05.001Z,5.33
2022-12-25T01:01:05.022Z,5.35
2022-12-25T01:02:05.105Z,5.38
2022-12-25T01:03:05.008Z,5.38
2022-12-25T01:04:04.966Z,5.38
2022-12-25T01:05:04.940Z,5.37
2022-12-25T01:06:04.929Z,5.35
2022-12-25T01:07:04.919Z,5.32
2022-12-25T01:08:04.907Z,5.29
2022-12-25T01:09:04.952Z,5.27
2022-12-25T01:10:04.892Z,5.23
2022-12-25T01:11:04.894Z,5.23
2022-12-25T01:12:04.866Z,5.19
2022-12-25T01:13:04.867Z,5.15
2022-12-25T01:14:04.868Z,5.15
2022-12-25T01:15:04.960Z,5.12
2022-12-25T01:16:04.895Z,5.12
2022-12-25T01:17:04.825Z,5.12
2022-12-25T01:18:07.894Z,5.11
2022-12-25T01:19:04.814Z,5.11
2022-12-25T01:20:04.789Z,5.11
2022-12-25T01:21:04.789Z,5.09
2022-12-25T01:22:04.780Z,5.09
2022-12-25T01:23:04.761Z,5.08
2022-12-25T01:24:04.773Z,5.06
2022-12-25T01:25:04.752Z,5.04
2022-12-25T01:26:04.734Z,5.04
2022-12-25T01:27:04.730Z,5.06
2022-12-25T01:28:04.709Z,5.04
2022-12-25T01:29:04.722Z,5.04
2022-12-25T01:30:04.696Z,5.05
2022-12-25T01:31:04.690Z,5.06
2022-12-25T01:32:04.717Z,5.06
2022-12-25T01:33:04.675Z,5.05
2022-12-25T01:34:04.672Z,5.04
2022-12-25T01:35:04.651Z,5.04
2022-12-25T01:36:04.652Z,5.04
2022-12-25T01:37:04.632Z,5.04
2022-12-25T01:38:04.608Z,5.02
2022-12-25T01:39:04.620Z,5.01
2022-12-25T01:40:04.613Z,5.01
2022-12-25T01:41:04.597Z,5.01
2022-12-25T01:42:04.575Z,4.99
2022-12-25T01:43:04.573Z,5.01
2022-12-25T01:44:04.593Z,5.02
2022-12-25T01:45:04.542Z,4.99
2022-12-25T01:46:04.602Z,5.01
2022-12-25T01:47:04.546Z,4.99
2022-12-25T01:48:04.511Z,4.99
2022-12-25T01:49:04.519Z,4.96
2022-12-25T01:50:04.494Z,4.94
2022-12-25T01:51:04.489Z,4.94
2022-12-25T01:52:04.475Z,4.93
2022-12-25T01:53:04.474Z,4.93
2022-12-25T01:54:04.480Z,4.90
2022-12-25T01:55:04.454Z,4.90
2022-12-25T01:56:04.433Z,4.90
2022-12-25T01:57:04.453Z,4.87
2022-12-25T01:58:04.412Z,4.84
2022-12-25T01:59:04.427Z,4.86
2022-12-25T02:00:04.414Z,4.84
2022-12-25T02:01:04.486Z,4.86
2022-12-25T02:02:04.544Z,4.84
2022-12-25T02:03:04.453Z,4.86
2022-12-25T02:04:04.370Z,4.84
2022-12-25T02:05:04.368Z,4.84
2022-12-25T02:06:04.344Z,4.84
2022-12-25T02:07:04.340Z,4.86
2022-12-25T02:08:04.308Z,4.87
2022-12-25T02:09:04.365Z,4.87
2022-12-25T02:10:04.310Z,4.88
2022-12-25T02:11:04.283Z,4.88
2022-12-25T02:12:04.270Z,4.88
2022-12-25T02:13:04.286Z,4.87
2022-12-25T02:14:04.274Z,4.86
2022-12-25T02:15:08.369Z,4.86
2022-12-25T02:16:04.330Z,4.86
2022-12-25T02:17:04.277Z,4.90
2022-12-25T02:18:04.219Z,4.93
2022-12-25T02:19:04.219Z,4.97
2022-12-25T02:20:04.205Z,4.97
2022-12-25T02:21:04.182Z,4.96
2022-12-25T02:22:04.185Z,4.94
2022-12-25T02:23:04.171Z,4.94
2022-12-25T02:24:04.239Z,4.93
2022-12-25T02:25:04.143Z,4.93
2022-12-25T02:26:04.131Z,4.90
2022-12-25T02:27:04.129Z,4.87
2022-12-25T02:28:04.110Z,4.87
2022-12-25T02:29:04.144Z,4.86
2022-12-25T02:30:04.104Z,4.86
2022-12-25T02:31:04.079Z,4.86
2022-12-25T02:32:04.131Z,4.83
2022-12-25T02:33:04.066Z,4.86
2022-12-25T02:34:04.070Z,4.86
2022-12-25T02:35:04.065Z,4.86
2022-12-25T02:36:04.032Z,4.87
2022-12-25T02:37:04.024Z,4.88
2022-12-25T02:38:04.023Z,4.87
2022-12-25T02:39:04.026Z,4.84
2022-12-25T02:40:03.994Z,4.83
2022-12-25T02:41:03.987Z,4.83
2022-12-25T02:42:03.986Z,4.79
2022-12-25T02:43:03.962Z,4.79
2022-12-25T02:44:03.962Z,4.77
2022-12-25T02:45:03.948Z,4.79
2022-12-25T02:46:04.066Z,4.77
2022-12-25T02:47:03.925Z,4.79
2022-12-25T02:48:03.930Z,4.77
2022-12-25T02:49:03.922Z,4.77
2022-12-25T02:50:03.888Z,4.75
2022-12-25T02:51:03.881Z,4.75
2022-12-25T02:52:03.866Z,4.74
2022-12-25T02:53:03.869Z,4.72
2022-12-25T02:54:03.864Z,4.71
2022-12-25T02:55:03.846Z,4.72
2022-12-25T02:56:03.828Z,4.71
2022-12-25T02:57:03.822Z,4.72
2022-12-25T02:58:03.810Z,4.72
2022-12-25T02:59:03.853Z,4.71
2022-12-25T03:00:03.809Z,4.71
2022-12-25T03:01:03.856Z,4.69
2022-12-25T03:02:03.890Z,4.69
2022-12-25T03:03:03.812Z,4.69
2022-12-25T03:04:03.785Z,4.67
2022-12-25T03:05:03.751Z,4.68
2022-12-25T03:06:03.745Z,4.65
2022-12-25T03:07:03.717Z,4.65
2022-12-25T03:08:03.712Z,4.65
2022-12-25T03:09:03.707Z,4.62
2022-12-25T03:10:03.695Z,4.61
2022-12-25T03:11:03.677Z,4.61
2022-12-25T03:12:03.675Z,4.57
2022-12-25T03:13:03.655Z,4.59
2022-12-25T03:14:03.664Z,4.57
2022-12-25T03:15:03.677Z,4.56
2022-12-25T03:16:03.637Z,4.56
2022-12-25T03:17:03.657Z,4.57
2022-12-25T03:18:03.615Z,4.56
2022-12-25T03:19:03.627Z,4.56
2022-12-25T03:20:03.597Z,4.56
2022-12-25T03:21:03.581Z,4.56
2022-12-25T03:22:03.574Z,4.53
2022-12-25T03:23:03.559Z,4.54
2022-12-25T03:24:03.576Z,4.53
2022-12-25T03:25:03.549Z,4.53
2022-12-25T03:26:03.536Z,4.53
2022-12-25T03:27:03.512Z,4.51
2022-12-25T03:28:03.508Z,4.50
2022-12-25T03:29:03.525Z,4.51
2022-12-25T03:30:03.497Z,4.51
2022-12-25T03:31:03.531Z,4.51
2022-12-25T03:32:03.470Z,4.50
2022-12-25T03:33:13.583Z,4.49
2022-12-25T03:34:03.477Z,4.50
2022-12-25T03:35:03.453Z,4.50
2022-12-25T03:36:03.430Z,4.50
2022-12-25T03:37:03.430Z,4.50
2022-12-25T03:38:03.413Z,4.50
2022-12-25T03:39:03.392Z,4.54
2022-12-25T03:40:03.417Z,4.54
2022-12-25T03:41:03.385Z,4.54
2022-12-25T03:42:03.398Z,4.54
2022-12-25T03:43:03.366Z,4.54
2022-12-25T03:44:03.366Z,4.56
2022-12-25T03:45:03.342Z,4.57
2022-12-25T03:46:03.371Z,4.57
2022-12-25T03:47:03.309Z,4.57
2022-12-25T03:48:03.315Z,4.57
2022-12-25T03:49:03.297Z,4.54
2022-12-25T03:50:03.315Z,4.56
2022-12-25T03:51:03.270Z,4.54
2022-12-25T03:52:03.262Z,4.51
2022-12-25T03:53:03.255Z,4.49
2022-12-25T03:54:03.260Z,4.49
2022-12-25T03:55:03.244Z,4.50
2022-12-25T03:56:03.237Z,4.51
2022-12-25T03:57:03.208Z,4.51
2022-12-25T03:58:03.218Z,4.51
2022-12-25T03:59:03.193Z,4.51
2022-12-25T04:00:03.213Z,4.51
2022-12-25T04:01:03.207Z,4.51
2022-12-25T04:02:03.289Z,4.53
2022-12-25T04:03:03.203Z,4.54
2022-12-25T04:04:03.140Z,4.54
2022-12-25T04:05:03.147Z,4.54
2022-12-25T04:06:03.124Z,4.56
2022-12-25T04:07:03.111Z,4.56
2022-12-25T04:08:03.104Z,4.56
2022-12-25T04:09:03.090Z,4.56
2022-12-25T04:10:03.120Z,4.54
2022-12-25T04:11:03.064Z,4.56
2022-12-25T04:12:03.406Z,4.56
2022-12-25T04:13:03.054Z,4.56
2022-12-25T04:14:03.045Z,4.54
2022-12-25T04:15:03.065Z,4.56
2022-12-25T04:16:03.078Z,4.56
2022-12-25T04:17:03.006Z,4.59
2022-12-25T04:18:02.997Z,4.56
2022-12-25T04:19:02.994Z,4.57
2022-12-25T04:20:03.018Z,4.57
2022-12-25T04:21:02.974Z,4.56
2022-12-25T04:22:02.966Z,4.56
2022-12-25T04:23:02.967Z,4.56
2022-12-25T04:24:03.808Z,4.57
2022-12-25T04:25:02.937Z,4.56
2022-12-25T04:26:02.946Z,4.57
2022-12-25T04:27:02.914Z,4.56
2022-12-25T04:28:02.908Z,4.57
2022-12-25T04:29:02.893Z,4.56
2022-12-25T04:30:02.906Z,4.56
2022-12-25T04:31:02.906Z,4.57
2022-12-25T04:32:02.871Z,4.54
2022-12-25T04:33:02.868Z,4.54
2022-12-25T04:34:02.839Z,4.56
2022-12-25T04:35:02.848Z,4.56
2022-12-25T04:36:02.830Z,4.56
2022-12-25T04:37:02.821Z,4.57
2022-12-25T04:38:02.804Z,4.56
2022-12-25T04:39:02.792Z,4.57
2022-12-25T04:40:02.799Z,4.57
2022-12-25T04:41:02.768Z,4.57
2022-12-25T04:42:02.760Z,4.56
2022-12-25T04:43:02.742Z,4.54
2022-12-25T04:44:02.737Z,4.54
2022-12-25T04:45:02.743Z,4.54
2022-12-25T04:46:02.812Z,4.54
2022-12-25T04:47:09.176Z,4.54
2022-12-25T04:48:02.722Z,4.53
2022-12-25T04:49:02.717Z,4.53
2022-12-25T04:50:02.699Z,4.51
2022-12-25T04:51:02.666Z,4.51
2022-12-25T04:52:02.675Z,4.51
2022-12-25T04:53:02.671Z,4.49
2022-12-25T04:54:02.640Z,4.50
2022-12-25T04:55:02.648Z,4.50
2022-12-25T04:56:02.622Z,4.50
2022-12-25T04:57:02.610Z,4.49
2022-12-25T04:58:02.599Z,4.49
2022-12-25T04:59:02.590Z,4.47
2022-12-25T05:00:02.597Z,4.46
2022-12-25T05:01:02.613Z,4.44
2022-12-25T05:02:02.741Z,4.47
2022-12-25T05:03:02.763Z,4.44
2022-12-25T05:04:02.556Z,4.44
2022-12-25T05:05:02.562Z,4.43
2022-12-25T05:06:02.512Z,4.43
2022-12-25T05:07:02.519Z,4.43
2022-12-25T05:08:02.499Z,4.43
2022-12-25T05:09:02.506Z,4.43
2022-12-25T05:10:02.488Z,4.43
2022-12-25T05:11:02.474Z,4.46
2022-12-25T05:12:02.456Z,4.44
2022-12-25T05:13:02.459Z,4.43
2022-12-25T05:14:02.450Z,4.43
2022-12-25T05:15:02.457Z,4.42
2022-12-25T05:16:02.455Z,4.42
2022-12-25T05:17:02.413Z,4.43
2022-12-25T05:18:02.397Z,4.44
2022-12-25T05:19:02.408Z,4.43
2022-12-25T05:20:02.395Z,4.44
2022-12-25T05:21:02.378Z,4.46
2022-12-25T05:22:02.392Z,4.44
2022-12-25T05:23:02.354Z,4.44
2022-12-25T05:24:02.333Z,4.44
2022-12-25T05:25:02.360Z,4.43
2022-12-25T05:26:02.318Z,4.46
2022-12-25T05:27:02.328Z,4.44
2022-12-25T05:28:02.300Z,4.47
2022-12-25T05:29:02.319Z,4.47
2022-12-25T05:30:02.289Z,4.47
2022-12-25T05:31:02.323Z,4.49
2022-12-25T05:32:02.256Z,4.49
2022-12-25T05:33:02.265Z,4.50
2022-12-25T05:34:02.238Z,4.50
2022-12-25T05:35:02.252Z,4.51
2022-12-25T05:36:02.219Z,4.54
2022-12-25T05:37:02.224Z,4.54
2022-12-25T05:38:02.202Z,4.54
2022-12-25T05:39:02.189Z,4.56
2022-12-25T05:40:02.199Z,4.57
2022-12-25T05:41:02.176Z,4.59
2022-12-25T05:42:02.154Z,4.59
2022-12-25T05:43:02.154Z,4.59
2022-12-25T05:44:02.164Z,4.61
2022-12-25T05:45:02.153Z,4.61
2022-12-25T05:46:02.141Z,4.62
2022-12-25T05:47:02.190Z,4.64
2022-12-25T05:48:02.115Z,4.64
2022-12-25T05:49:02.087Z,4.64
2022-12-25T05:50:02.099Z,4.64
2022-12-25T05:51:02.071Z,4.65
2022-12-25T05:52:02.055Z,4.65
2022-12-25T05:53:07.894Z,4.67
2022-12-25T05:54:02.043Z,4.67
2022-12-25T05:55:02.057Z,4.67
2022-12-25T05:56:02.020Z,4.68
2022-12-25T05:57:02.006Z,4.67
2022-12-25T05:58:01.995Z,4.67
2022-12-25T05:59:01.987Z,4.67
2022-12-25T06:00:02.013Z,4.68
2022-12-25T06:01:01.965Z,4.68
2022-12-25T06:02:02.134Z,4.67
2022-12-25T06:03:02.151Z,4.68
2022-12-25T06:04:04.633Z,4.69
2022-12-25T06:05:01.951Z,4.67
2022-12-25T06:06:01.916Z,4.68
2022-12-25T06:07:01.904Z,4.68
2022-12-25T06:08:01.886Z,4.68
2022-12-25T06:09:01.892Z,4.69
2022-12-25T06:10:01.885Z,4.68
2022-12-25T06:11:01.872Z,4.69
2022-12-25T06:12:01.864Z,4.68
2022-12-25T06:13:01.849Z,4.71
2022-12-25T06:14:01.903Z,4.68
2022-12-25T06:15:01.856Z,4.69
2022-12-25T06:16:01.873Z,4.68
2022-12-25T06:17:01.883Z,4.68
2022-12-25T06:18:01.805Z,4.69
2022-12-25T06:19:01.798Z,4.71
2022-12-25T06:20:01.806Z,4.69
2022-12-25T06:21:01.765Z,4.69
2022-12-25T06:22:01.755Z,4.72
2022-12-25T06:23:01.762Z,4.72
2022-12-25T06:24:01.799Z,4.72
2022-12-25T06:25:01.725Z,4.74
2022-12-25T06:26:01.722Z,4.74
2022-12-25T06:27:01.714Z,4.72
2022-12-25T06:28:01.705Z,4.75
2022-12-25T06:29:01.686Z,4.77
2022-12-25T06:30:01.677Z,4.77
2022-12-25T06:31:01.683Z,4.77
2022-12-25T06:32:01.855Z,4.79
2022-12-25T06:33:01.649Z,4.79
2022-12-25T06:34:01.655Z,4.80
2022-12-25T06:35:01.621Z,4.80
2022-12-25T06:36:01.620Z,4.80
2022-12-25T06:37:01.607Z,4.80
2022-12-25T06:38:01.590Z,4.83
2022-12-25T06:39:01.603Z,4.83
2022-12-25T06:40:01.607Z,4.84
2022-12-25T06:41:01.575Z,4.86
2022-12-25T06:42:01.546Z,4.84
2022-12-25T06:43:01.549Z,4.84
2022-12-25T06:44:01.529Z,4.84
2022-12-25T06:45:01.550Z,4.84
2022-12-25T06:46:01.626Z,4.86
2022-12-25T06:47:01.502Z,4.87
2022-12-25T06:48:01.512Z,4.90
2022-12-25T06:49:01.477Z,4.88
2022-12-25T06:50:01.470Z,4.87
2022-12-25T06:51:01.870Z,4.88
2022-12-25T06:52:01.438Z,4.87
2022-12-25T06:53:01.444Z,4.88
2022-12-25T06:54:01.447Z,4.87
2022-12-25T06:55:01.424Z,4.88
2022-12-25T06:56:01.425Z,4.86
2022-12-25T06:57:01.409Z,4.87
2022-12-25T06:58:01.395Z,4.86
2022-12-25T06:59:01.387Z,4.87
2022-12-25T07:00:01.313Z,4.87
2022-12-25T07:01:01.465Z,4.87
2022-12-25T07:02:01.499Z,4.90
2022-12-25T07:03:01.478Z,4.88
2022-12-25T07:04:01.287Z,4.90
2022-12-25T07:05:01.263Z,4.90
2022-12-25T07:06:01.275Z,4.90
2022-12-25T07:07:08.065Z,4.90
2022-12-25T07:08:01.289Z,4.91
2022-12-25T07:09:01.295Z,4.90
2022-12-25T07:10:01.280Z,4.91
2022-12-25T07:11:01.230Z,4.91
2022-12-25T07:12:01.217Z,4.88
2022-12-25T07:13:01.179Z,4.90
2022-12-25T07:14:01.174Z,4.90
2022-12-25T07:15:01.158Z,4.91
2022-12-25T07:16:01.202Z,4.91
2022-12-25T07:17:01.219Z,4.90
2022-12-25T07:18:01.152Z,4.91
2022-12-25T07:19:01.136Z,4.91
2022-12-25T07:20:01.107Z,4.90
2022-12-25T07:21:01.123Z,4.91
2022-12-25T07:22:01.100Z,4.91
2022-12-25T07:23:01.087Z,4.93
2022-12-25T07:24:01.069Z,4.93
2022-12-25T07:25:01.073Z,4.91
2022-12-25T07:26:01.094Z,4.93
2022-12-25T07:27:01.045Z,4.93
2022-12-25T07:28:01.034Z,4.94
2022-12-25T07:29:01.025Z,4.96
2022-12-25T07:30:01.020Z,4.96
2022-12-25T07:31:01.021Z,4.96
2022-12-25T07:32:01.092Z,4.97
2022-12-25T07:33:00.993Z,4.99
2022-12-25T07:34:00.975Z,4.99
2022-12-25T07:35:00.974Z,4.99
2022-12-25T07:36:00.964Z,4.99
2022-12-25T07:37:00.987Z,5.01
2022-12-25T07:38:00.936Z,5.02
2022-12-25T07:39:00.928Z,5.02
2022-12-25T07:40:00.917Z,5.04
2022-12-25T07:41:00.921Z,5.04
2022-12-25T07:42:00.901Z,5.05
2022-12-25T07:43:00.896Z,5.05
2022-12-25T07:44:00.877Z,5.06
2022-12-25T07:45:00.878Z,5.05
2022-12-25T07:46:01.002Z,5.05
2022-12-25T07:47:00.843Z,5.06
2022-12-25T07:48:05.174Z,5.06
2022-12-25T07:49:00.823Z,5.08
2022-12-25T07:50:00.811Z,5.09
2022-12-25T07:51:00.822Z,5.08
2022-12-25T07:52:00.801Z,5.08
2022-12-25T07:53:00.799Z,5.12
2022-12-25T07:54:00.778Z,5.11
2022-12-25T07:55:00.774Z,5.11
2022-12-25T07:56:00.776Z,5.11
2022-12-25T07:57:00.770Z,5.12
2022-12-25T07:58:00.736Z,5.12
2022-12-25T07:59:00.738Z,5.12
2022-12-25T08:00:00.719Z,5.14
2022-12-25T08:01:00.832Z,5.14
2022-12-25T08:02:00.995Z,5.14
2022-12-25T08:03:00.955Z,5.14
2022-12-25T08:04:00.809Z,5.15
2022-12-25T08:05:00.685Z,5.14
2022-12-25T08:06:00.680Z,5.15
2022-12-25T08:07:00.648Z,5.17
2022-12-25T08:08:00.660Z,5.17
2022-12-25T08:09:00.625Z,5.19
2022-12-25T08:10:00.645Z,5.19
2022-12-25T08:11:00.652Z,5.20
2022-12-25T08:12:00.620Z,5.20
2022-12-25T08:13:00.583Z,5.20
2022-12-25T08:14:00.576Z,5.22
2022-12-25T08:15:00.596Z,5.23
2022-12-25T08:16:00.572Z,5.24
2022-12-25T08:17:00.659Z,5.24
2022-12-25T08:18:00.531Z,5.24
2022-12-25T08:19:00.524Z,5.24
2022-12-25T08:20:00.517Z,5.26
2022-12-25T08:21:00.523Z,5.27
2022-12-25T08:22:00.521Z,5.27
2022-12-25T08:23:00.504Z,5.27
2022-12-25T08:24:00.501Z,5.30
2022-12-25T08:25:00.467Z,5.29
2022-12-25T08:26:04.993Z,5.30
2022-12-25T08:27:00.469Z,5.32
2022-12-25T08:28:00.430Z,5.33
2022-12-25T08:29:00.430Z,5.32
2022-12-25T08:30:00.418Z,5.32
2022-12-25T08:31:00.477Z,5.35
2022-12-25T08:32:00.421Z,5.37
2022-12-25T08:33:00.520Z,5.38
2022-12-25T08:34:00.376Z,5.41
2022-12-25T08:35:00.379Z,5.41
2022-12-25T08:36:00.374Z,5.44
2022-12-25T08:37:00.354Z,5.45
2022-12-25T08:38:00.334Z,5.47
2022-12-25T08:39:03.337Z,5.52
2022-12-25T08:40:00.367Z,5.55
2022-12-25T08:41:00.337Z,5.59
2022-12-25T08:42:00.291Z,5.60
2022-12-25T08:43:00.415Z,5.66
2022-12-25T08:44:00.274Z,5.75
2022-12-25T08:45:00.272Z,5.83
2022-12-25T08:46:00.346Z,5.87
2022-12-25T08:47:00.262Z,5.90
2022-12-25T08:48:00.241Z,5.90
2022-12-25T08:49:00.261Z,5.93
2022-12-25T08:50:00.261Z,5.99
2022-12-25T08:51:00.249Z,6.01
2022-12-25T08:52:00.198Z,6.03
2022-12-25T08:53:00.432Z,6.10
2022-12-25T08:54:00.209Z,6.13
2022-12-25T08:55:00.196Z,6.17
2022-12-25T08:56:00.257Z,6.19
2022-12-25T08:57:02.942Z,6.21
2022-12-25T08:58:00.154Z,6.24
2022-12-25T08:59:00.157Z,6.25
2022-12-25T09:00:00.131Z,6.28
2022-12-25T09:01:00.243Z,6.33
2022-12-25T09:02:00.335Z,6.36
2022-12-25T09:03:00.390Z,6.38
2022-12-25T09:04:00.108Z,6.38
2022-12-25T09:05:00.123Z,6.38
2022-12-25T09:06:00.140Z,6.38
2022-12-25T09:07:00.056Z,6.39
2022-12-25T09:08:00.044Z,6.36
2022-12-25T09:09:00.033Z,6.38
2022-12-25T09:10:00.038Z,6.38
2022-12-25T09:11:00.027Z,6.38
2022-12-25T09:12:00.010Z,6.36
2022-12-25T09:13:00.053Z,6.36
2022-12-25T09:13:59.987Z,6.38
2022-12-25T09:14:59.981Z,6.39
2022-12-25T09:16:00.049Z,6.40
2022-12-25T09:16:59.963Z,6.43
2022-12-25T09:17:59.962Z,6.42
2022-12-25T09:18:59.987Z,6.40
2022-12-25T09:19:59.936Z,6.42
2022-12-25T09:20:59.943Z,6.39
2022-12-25T09:21:59.918Z,6.40
2022-12-25T09:22:59.912Z,6.42
2022-12-25T09:23:59.926Z,6.43
2022-12-25T09:24:59.892Z,6.45
2022-12-25T09:25:59.900Z,6.46
2022-12-25T09:26:59.865Z,6.45
2022-12-25T09:27:59.861Z,6.43
2022-12-25T09:28:59.848Z,6.43
2022-12-25T09:29:59.832Z,6.42
2022-12-25T09:30:59.977Z,6.42
2022-12-25T09:31:59.822Z,6.43
2022-12-25T09:32:59.804Z,6.43
2022-12-25T09:33:59.822Z,6.40
2022-12-25T09:34:59.781Z,6.43
2022-12-25T09:35:59.783Z,6.42
2022-12-25T09:36:59.789Z,6.40
2022-12-25T09:37:59.760Z,6.40
2022-12-25T09:38:59.744Z,6.43
2022-12-25T09:39:59.743Z,6.42
2022-12-25T09:40:59.750Z,6.43
2022-12-25T09:41:59.736Z,6.42
2022-12-25T09:42:59.703Z,6.43
2022-12-25T09:43:59.698Z,6.42
2022-12-25T09:44:59.694Z,6.43
2022-12-25T09:45:59.756Z,6.45
2022-12-25T09:46:59.795Z,6.45
2022-12-25T09:47:59.660Z,6.45
2022-12-25T09:48:59.644Z,6.51
2022-12-25T09:49:59.646Z,6.51
2022-12-25T09:50:59.634Z,6.54
2022-12-25T09:51:59.641Z,6.53
2022-12-25T09:52:59.607Z,6.53
2022-12-25T09:53:59.600Z,6.54
2022-12-25T09:54:59.584Z,6.54
2022-12-25T09:55:59.577Z,6.57
2022-12-25T09:56:59.593Z,6.60
2022-12-25T09:57:59.563Z,6.60
2022-12-25T09:58:59.550Z,6.63
2022-12-25T09:59:59.563Z,6.63
2022-12-25T10:00:59.528Z,6.63
2022-12-25T10:01:59.710Z,6.64
2022-12-25T10:02:59.727Z,6.64
2022-12-25T10:03:59.665Z,6.65
2022-12-25T10:04:59.493Z,6.68
2022-12-25T10:05:59.500Z,6.69
2022-12-25T10:06:59.483Z,6.71
2022-12-25T10:07:59.469Z,6.75
2022-12-25T10:08:59.460Z,6.76
2022-12-25T10:09:59.442Z,6.78
2022-12-25T10:10:59.430Z,6.81
2022-12-25T10:11:59.436Z,6.81
2022-12-25T10:12:59.434Z,6.81
2022-12-25T10:13:59.406Z,6.81
2022-12-25T10:14:59.391Z,6.79
2022-12-25T10:15:59.438Z,6.81
2022-12-25T10:16:59.390Z,6.83
2022-12-25T10:17:59.368Z,6.86
2022-12-25T10:18:59.374Z,6.87
2022-12-25T10:19:59.370Z,6.87
2022-12-25T10:20:59.336Z,6.87
2022-12-25T10:21:59.347Z,6.87
2022-12-25T10:22:59.339Z,6.87
2022-12-25T10:23:59.332Z,6.89
2022-12-25T10:24:59.302Z,6.86
2022-12-25T10:25:59.305Z,6.90
2022-12-25T10:26:59.299Z,6.93
2022-12-25T10:27:59.266Z,6.96
2022-12-25T10:28:59.272Z,6.99
2022-12-25T10:29:59.257Z,6.97
2022-12-25T10:30:59.257Z,6.99
2022-12-25T10:31:59.258Z,7.00
2022-12-25T10:32:59.223Z,6.99
2022-12-25T10:33:59.216Z,7.00
2022-12-25T10:34:59.200Z,7.01
2022-12-25T10:35:59.213Z,7.00
2022-12-25T10:36:59.197Z,7.01
2022-12-25T10:37:59.201Z,7.04
2022-12-25T10:38:59.201Z,7.04
2022-12-25T10:39:59.153Z,7.05
2022-12-25T10:40:59.143Z,7.07
2022-12-25T10:41:59.159Z,7.07
2022-12-25T10:42:59.126Z,7.09
2022-12-25T10:43:59.134Z,7.09
2022-12-25T10:44:59.145Z,7.08
2022-12-25T10:45:59.172Z,7.07
2022-12-25T10:46:59.267Z,7.11
2022-12-25T10:48:05.005Z,7.11
2022-12-25T10:48:59.071Z,7.11
2022-12-25T10:49:59.060Z,7.11
2022-12-25T10:50:59.040Z,7.09
2022-12-25T10:51:59.061Z,7.08
2022-12-25T10:52:59.051Z,7.09
2022-12-25T10:53:59.035Z,7.11
2022-12-25T10:54:59.000Z,7.09
2022-12-25T10:55:58.998Z,7.11
2022-12-25T10:56:59.026Z,7.09
2022-12-25T10:57:59.075Z,7.08
2022-12-25T10:58:58.977Z,7.09
2022-12-25T10:59:58.966Z,7.08
2022-12-25T11:00:58.948Z,7.05
2022-12-25T11:01:59.048Z,7.07
2022-12-25T11:02:59.270Z,7.07
2022-12-25T11:03:58.952Z,7.07
2022-12-25T11:04:58.907Z,7.07
2022-12-25T11:05:58.910Z,7.07
2022-12-25T11:06:58.907Z,7.11
2022-12-25T11:07:58.877Z,7.08
2022-12-25T11:08:58.876Z,7.11
2022-12-25T11:10:04.607Z,7.11
2022-12-25T11:10:58.853Z,7.11
2022-12-25T11:11:58.861Z,7.14
2022-12-25T11:12:58.844Z,7.11
2022-12-25T11:13:58.831Z,7.09
2022-12-25T11:14:58.806Z,7.11
2022-12-25T11:15:58.910Z,7.08
2022-12-25T11:16:58.827Z,7.07
2022-12-25T11:17:58.848Z,7.07
2022-12-25T11:18:58.783Z,7.05
2022-12-25T11:19:58.824Z,7.05
2022-12-25T11:20:58.801Z,7.07
2022-12-25T11:21:58.797Z,7.08
2022-12-25T11:22:58.738Z,7.12
2022-12-25T11:23:58.726Z,7.14
2022-12-25T11:24:58.721Z,7.15
2022-12-25T11:25:58.716Z,7.15
2022-12-25T11:26:58.710Z,7.16
2022-12-25T11:27:58.688Z,7.16
2022-12-25T11:28:58.675Z,7.16
2022-12-25T11:29:58.667Z,7.15
2022-12-25T11:30:58.675Z,7.15
2022-12-25T11:31:58.673Z,7.15
2022-12-25T11:32:58.645Z,7.15
2022-12-25T11:33:58.653Z,7.14
2022-12-25T11:34:58.640Z,7.15
2022-12-25T11:35:58.616Z,7.15
2022-12-25T11:36:58.611Z,7.15
2022-12-25T11:37:58.610Z,7.14
2022-12-25T11:38:58.579Z,7.15
2022-12-25T11:39:58.577Z,7.14
2022-12-25T11:40:58.565Z,7.15
2022-12-25T11:41:58.570Z,7.16
2022-12-25T11:43:04.120Z,7.18
2022-12-25T11:43:58.549Z,7.15
2022-12-25T11:44:58.534Z,7.18
2022-12-25T11:45:58.515Z,7.15
2022-12-25T11:46:58.614Z,7.16
2022-12-25T11:47:58.495Z,7.18
2022-12-25T11:48:58.485Z,7.18
2022-12-25T11:50:00.772Z,7.18
2022-12-25T11:50:58.461Z,7.19
2022-12-25T11:51:58.469Z,7.19
2022-12-25T11:52:58.444Z,7.19
2022-12-25T11:53:58.449Z,7.18
2022-12-25T11:54:58.429Z,7.15
2022-12-25T11:55:58.419Z,7.16
2022-12-25T11:56:58.432Z,7.16
2022-12-25T11:57:58.394Z,7.16
2022-12-25T11:58:58.392Z,7.16
2022-12-25T11:59:58.387Z,7.14
2022-12-25T12:00:58.369Z,7.14
2022-12-25T12:01:58.419Z,7.14
2022-12-25T12:02:58.448Z,7.18
2022-12-25T12:03:58.478Z,7.18
2022-12-25T12:04:58.326Z,7.19
2022-12-25T12:05:58.332Z,7.19
2022-12-25T12:06:58.344Z,7.23
2022-12-25T12:07:58.301Z,7.23
2022-12-25T12:08:58.288Z,7.21
2022-12-25T12:09:58.318Z,7.23
2022-12-25T12:10:58.279Z,7.19
2022-12-25T12:11:58.266Z,7.19
2022-12-25T12:12:58.264Z,7.21
2022-12-25T12:13:58.243Z,7.19
2022-12-25T12:14:58.236Z,7.19
2022-12-25T12:15:58.270Z,7.19
2022-12-25T12:16:58.324Z,7.19
2022-12-25T12:17:58.223Z,7.18
2022-12-25T12:18:58.189Z,7.16
2022-12-25T12:19:58.185Z,7.18
2022-12-25T12:20:58.174Z,7.19
2022-12-25T12:21:58.162Z,7.19
2022-12-25T12:22:58.171Z,7.19
2022-12-25T12:23:58.153Z,7.18
2022-12-25T12:24:58.143Z,7.19
2022-12-25T12:25:58.127Z,7.18
2022-12-25T12:26:58.112Z,7.16
2022-12-25T12:28:04.538Z,7.16
2022-12-25T12:28:58.115Z,7.18
2022-12-25T12:29:58.087Z,7.16
2022-12-25T12:30:58.079Z,7.16
2022-12-25T12:31:58.106Z,7.16
2022-12-25T12:32:58.068Z,7.16
2022-12-25T12:33:58.058Z,7.19
2022-12-25T12:34:58.043Z,7.16
2022-12-25T12:35:58.036Z,7.15
2022-12-25T12:36:58.023Z,7.16
2022-12-25T12:37:58.045Z,7.15
2022-12-25T12:38:57.997Z,7.16
2022-12-25T12:39:58.007Z,7.16
2022-12-25T12:40:57.975Z,7.18
2022-12-25T12:41:57.970Z,7.18
2022-12-25T12:42:57.997Z,7.16
2022-12-25T12:43:57.959Z,7.18
2022-12-25T12:44:57.938Z,7.19
2022-12-25T12:45:58.018Z,7.19
2022-12-25T12:46:57.932Z,7.18
2022-12-25T12:47:57.933Z,7.19
2022-12-25T12:48:57.895Z,7.21
2022-12-25T12:49:57.955Z,7.19
2022-12-25T12:50:57.873Z,7.19
2022-12-25T12:51:57.881Z,7.19
2022-12-25T12:52:57.881Z,7.24
2022-12-25T12:53:57.853Z,7.21
2022-12-25T12:54:57.843Z,7.23
2022-12-25T12:55:57.845Z,7.23
2022-12-25T12:56:57.820Z,7.24
2022-12-25T12:57:57.827Z,7.24
2022-12-25T12:58:57.842Z,7.29
2022-12-25T12:59:59.047Z,7.29
2022-12-25T13:00:57.819Z,7.30
2022-12-25T13:01:58.107Z,7.30
2022-12-25T13:02:57.916Z,7.29
2022-12-25T13:03:57.763Z,7.29
2022-12-25T13:04:57.742Z,7.26
2022-12-25T13:05:57.753Z,7.26
2022-12-25T13:06:57.720Z,7.26
2022-12-25T13:07:57.745Z,7.24
2022-12-25T13:08:57.705Z,7.24
2022-12-25T13:09:57.706Z,7.26
2022-12-25T13:10:57.681Z,7.26
2022-12-25T13:11:57.681Z,7.24
2022-12-25T13:12:57.702Z,7.27
2022-12-25T13:13:57.662Z,7.26
2022-12-25T13:14:57.639Z,7.26
2022-12-25T13:15:57.642Z,7.26
2022-12-25T13:16:57.664Z,7.26
2022-12-25T13:17:57.642Z,7.24